Latest Weather Observations for Alva Beach

IDQ60801

Issued at 7:32 pm EST Saturday 2 July 2016 (issued every 30 minutes, with the page automatically refreshed every 10 minutes)

About weather observations | Map of weather stations | Latest weather observations for QLD | Other Formats
Station Details ID: 033295 Name: ALVA BEACH Lat: -19.46 Lon: 147.48 Height: 7.5 m
Data from the previous 72 hours. | See also: Recent months at Alva Beach
Date/Time
EST
Temp
°C
App
Temp
°C
Dew
Point
°C
Rel
Hum
%
Delta-T
°C
Wind Press
QNH
hPa
Press
MSL
hPa
Rain since
9am
mm
Dir  Spd
km/h
Gust
km/h
Spd
kts
Gust
kts
02/07:30pm 21.6 18.5 13.5 60 4.7 ESE 22 30 12 16 1021.1 1021.1 0.0
02/07:00pm 21.8 19.2 13.7 60 4.7 ESE 20 33 11 18 1020.9 1020.9 0.0
02/06:30pm 21.6 19.2 13.8 61 4.5 ESE 19 28 10 15 1020.6 1020.6 0.0
02/06:00pm 21.6 18.6 12.5 56 5.1 E 20 28 11 15 1020.2 1020.2 0.0
02/05:30pm 22.0 19.5 13.4 58 5.0 E 19 26 10 14 1020.1 1020.1 0.0
02/05:00pm 22.2 19.0 13.0 56 5.3 E 22 28 12 15 1019.6 1019.6 0.0
02/04:30pm 22.7 19.4 12.9 54 5.6 E 22 30 12 16 1019.3 1019.3 0.0
02/04:00pm 22.9 19.2 11.6 49 6.3 E 22 28 12 15 1019.0 1019.0 0.0
02/03:30pm 23.8 20.9 12.8 50 6.3 ESE 20 30 11 16 1018.9 1018.9 0.0
02/03:00pm 23.7 19.8 12.0 48 6.6 E 24 33 13 18 1019.0 1019.0 0.0
02/02:30pm 24.9 22.4 13.5 49 6.7 ESE 19 30 10 16 1019.1 1019.1 0.0
02/02:00pm 23.9 21.5 13.7 53 5.9 ESE 19 28 10 15 1019.3 1019.3 0.0
02/01:30pm 24.5 22.2 13.1 49 6.6 ESE 17 28 9 15 1019.8 1019.8 0.0
02/01:00pm 24.3 21.4 12.3 47 6.8 ESE 19 32 10 17 1020.1 1020.1 0.0
02/12:30pm 24.2 21.4 13.1 50 6.4 ESE 20 26 11 14 1020.6 1020.6 0.0
02/12:00pm 23.8 21.3 13.4 52 6.0 SE 19 30 10 16 1020.7 1020.7 0.0
02/11:30am 23.9 21.7 13.2 51 6.2 SE 17 28 9 15 1021.0 1021.0 0.0
02/11:00am 23.5 21.7 13.4 53 5.8 SE 15 28 8 15 1021.1 1021.1 0.0
02/10:30am 23.4 22.1 13.6 54 5.7 SE 13 26 7 14 1021.3 1021.3 0.0
02/10:00am 22.4 20.6 13.2 56 5.3 SE 15 30 8 16 1021.5 1021.5 0.0
02/09:30am 22.6 21.0 13.9 58 5.1 SSE 15 26 8 14 1021.4 1021.4 0.0
02/09:00am 22.2 20.7 14.3 61 4.6 SE 15 28 8 15 1021.0 1021.0 0.0
02/08:30am 20.9 21.2 15.9 73 3.0 SSE 9 17 5 9 1020.7 1020.7 0.0
02/08:00am 19.2 19.9 16.1 82 1.8 S 7 13 4 7 1020.3 1020.3 0.0
02/07:30am 18.0 18.5 16.5 91 0.9 S 9 13 5 7 1020.0 1020.0 0.0
02/07:00am 17.3 17.7 16.2 93 0.6 SSW 9 13 5 7 1019.8 1019.8 0.0
02/06:30am 17.3 17.7 16.2 93 0.7 S 9 13 5 7 1019.5 1019.5 0.0
02/06:00am 17.4 17.8 16.3 93 0.7 S 9 15 5 8 1019.0 1019.0 0.0
02/05:30am 17.2 17.5 16.1 93 0.7 SSW 9 13 5 7 1018.9 1018.9 0.0
02/05:00am 17.2 17.5 15.9 92 0.8 S 9 11 5 6 1018.8 1018.8 0.0
02/04:30am 17.4 17.7 15.9 91 0.9 S 9 13 5 7 1018.8 1018.8 0.0
02/04:00am 17.4 17.7 15.9 91 0.9 SSW 9 11 5 6 1018.9 1018.9 0.0
02/03:30am 17.7 18.4 16.2 91 0.9 SSW 7 11 4 6 1018.9 1018.9 0.0
02/03:00am 18.1 19.0 16.6 91 0.9 S 7 11 4 6 1019.1 1019.1 0.0
02/02:30am 18.6 19.6 16.9 90 1.0 S 7 11 4 6 1019.0 1019.0 0.0
02/02:00am 18.8 19.7 16.6 87 1.3 SSW 7 9 4 5 1019.2 1019.2 0.0
02/01:30am 19.0 20.0 16.8 87 1.3 S 7 11 4 6 1019.3 1019.3 0.0
02/01:00am 18.2 18.6 15.3 83 1.7 SSW 7 11 4 6 1019.5 1019.5 0.0
02/12:30am 18.6 19.1 15.1 80 2.0 SSW 6 11 3 6 1019.6 1019.6 0.0
02/12:00am 19.2 19.5 14.9 76 2.5 SSW 7 9 4 5 1019.8 1019.8 0.0
 
Date/Time
EST
Temp
°C
App
Temp
°C
Dew
Point
°C
Rel
Hum
%
Delta-T
°C
Wind Press
QNH
hPa
Press
MSL
hPa
Rain since
9am
mm
Dir  Spd
km/h
Gust
km/h
Spd
kts
Gust
kts
01/11:30pm 21.1 21.3 14.7 67 3.8 S 7 11 4 6 1019.8 1019.8 0.0
01/11:00pm 22.9 22.1 16.0 65 4.2 E 15 22 8 12 1019.7 1019.7 0.0
01/10:30pm 23.1 22.2 15.9 64 4.3 E 15 22 8 12 1019.9 1019.9 0.0
01/10:00pm 23.0 22.3 16.3 66 4.1 E 15 20 8 11 1020.0 1020.0 0.0
01/09:30pm 23.1 21.9 16.2 65 4.2 E 17 22 9 12 1019.9 1019.9 0.0
01/09:00pm 23.1 22.2 16.9 68 3.8 E 17 22 9 12 1019.7 1019.7 0.0
01/08:30pm 23.1 22.2 16.9 68 3.8 E 17 19 9 10 1019.6 1019.6 0.0
01/08:00pm 23.0 22.5 16.8 68 3.8 E 15 19 8 10 1019.4 1019.4 0.0
01/07:30pm 22.8 21.7 16.4 67 3.9 ENE 17 20 9 11 1019.1 1019.1 0.0
01/07:00pm 22.9 21.7 16.2 66 4.1 ENE 17 22 9 12 1018.8 1018.8 0.0
01/06:30pm 23.0 21.4 16.1 65 4.2 ENE 19 22 10 12 1018.4 1018.4 0.0
01/06:00pm 22.9 22.1 16.0 65 4.2 ENE 15 19 8 10 1018.1 1018.1 0.0
01/05:30pm 23.2 22.2 16.5 66 4.1 ENE 17 19 9 10 1017.8 1017.8 0.0
01/05:00pm 23.4 21.7 16.2 64 4.4 ENE 20 24 11 13 1017.4 1017.4 0.0
01/04:30pm 24.0 22.4 16.5 63 4.6 ENE 20 24 11 13 1017.0 1017.0 0.0
01/04:00pm 24.1 22.1 16.4 62 4.7 ENE 22 26 12 14 1016.7 1016.7 0.0
01/03:30pm 24.2 22.7 17.7 67 4.1 ENE 22 28 12 15 1016.7 1016.7 0.0
01/03:00pm 24.6 23.3 18.1 67 4.1 ENE 22 26 12 14 1016.9 1016.9 0.0
01/02:30pm 24.5 23.6 18.2 68 4.0 ENE 20 24 11 13 1017.1 1017.1 0.0
01/02:00pm 24.2 23.9 18.2 69 3.8 E 17 22 9 12 1017.3 1017.3 0.0
01/01:30pm 24.0 23.4 17.5 67 4.0 E 17 22 9 12 1017.7 1017.7 0.0
01/01:00pm 24.1 24.0 17.8 68 3.9 E 15 20 8 11 1018.1 1018.1 0.0
01/12:30pm 24.4 25.2 18.1 68 4.0 ESE 11 19 6 10 1018.6 1018.6 0.0
01/12:00pm 24.4 25.0 17.6 66 4.2 ESE 11 17 6 9 1019.0 1019.0 0.0
01/11:30am 24.7 25.3 17.7 65 4.4 ESE 11 19 6 10 1019.5 1019.5 0.0
01/11:00am 23.6 23.6 17.3 67 3.9 ESE 13 19 7 10 1019.8 1019.8 0.0
01/10:30am 23.7 24.5 17.2 67 4.0 SE 9 17 5 9 1019.9 1019.9 0.0
01/10:00am 23.2 23.7 16.5 66 4.1 ESE 9 17 5 9 1020.2 1020.2 0.0
01/09:30am 22.6 23.8 16.9 70 3.5 S 6 11 3 6 1020.4 1020.4 0.0
01/09:00am 20.9 21.7 16.3 75 2.8 S 7 9 4 5 1020.4 1020.4 0.0
01/08:30am 19.2 19.8 15.7 80 2.1 S 7 11 4 6 1020.4 1020.4 0.0
01/08:00am 17.9 17.6 15.5 86 1.4 SSW 11 17 6 9 1020.2 1020.2 0.0
01/07:30am 16.6 16.7 15.5 93 0.6 SSW 9 15 5 8 1019.8 1019.8 0.0
01/07:00am 15.9 15.7 14.8 93 0.6 SSW 9 13 5 7 1019.5 1019.5 0.0
01/06:30am 16.2 15.8 15.1 93 0.6 S 11 13 6 7 1019.0 1019.0 0.0
01/06:00am 16.4 16.4 15.3 93 0.6 S 9 11 5 6 1018.6 1018.6 0.0
01/05:30am 16.9 17.5 15.8 93 0.6 S 7 11 4 6 1018.3 1018.3 0.0
01/05:00am 16.9 17.1 15.8 93 0.6 S 9 11 5 6 1018.0 1018.0 0.0
01/04:30am 17.0 17.8 15.9 93 0.6 S 6 7 3 4 1017.8 1017.8 0.0
01/04:00am 17.3 17.9 15.8 91 0.9 S 7 9 4 5 1017.9 1017.9 0.0
01/03:30am 17.9 18.5 15.7 87 1.3 S 7 9 4 5 1018.1 1018.1 0.0
01/03:00am 19.9 20.5 16.9 83 1.8 SSE 9 17 5 9 1018.0 1018.0 0.0
01/02:30am 20.5 22.1 18.3 87 1.4 ESE 7 13 4 7 1018.3 1018.3 0.0
01/02:00am 20.5 21.9 17.9 85 1.6 ESE 7 13 4 7 1018.4 1018.4 0.0
01/01:30am 20.7 22.0 17.5 82 2.0 ESE 7 11 4 6 1018.8 1018.8 0.0
01/01:00am 21.1 21.8 17.9 82 2.0 SE 11 17 6 9 1018.9 1018.9 0.0
01/12:30am 21.4 21.7 18.0 81 2.1 SE 13 19 7 10 1019.0 1019.0 0.0
01/12:00am 21.5 22.3 18.1 81 2.1 ESE 11 17 6 9 1019.1 1019.1 0.0
 
Date/Time
EST
Temp
°C
App
Temp
°C
Dew
Point
°C
Rel
Hum
%
Delta-T
°C
Wind Press
QNH
hPa
Press
MSL
hPa
Rain since
9am
mm
Dir  Spd
km/h
Gust
km/h
Spd
kts
Gust
kts
30/11:30pm 21.3 22.4 17.9 81 2.1 ESE 9 13 5 7 1019.3 1019.3 0.0
30/11:00pm 21.7 22.0 17.9 79 2.4 E 13 17 7 9 1019.4 1019.4 0.0
30/10:30pm 21.7 21.9 17.7 78 2.5 ESE 13 20 7 11 1019.5 1019.5 0.0
30/10:00pm 22.1 21.9 17.5 75 2.8 E 15 20 8 11 1019.6 1019.6 0.0
30/09:30pm 22.3 21.8 17.7 75 2.9 E 17 22 9 12 1019.6 1019.6 0.0
30/09:00pm 22.6 22.1 17.9 75 2.9 E 17 22 9 12 1019.6 1019.6 0.0
30/08:30pm 22.5 22.7 17.6 74 3.0 E 13 20 7 11 1019.7 1019.7 0.0
30/08:00pm 22.4 22.7 18.0 76 2.7 E 13 17 7 9 1019.6 1019.6 0.0
30/07:30pm 22.2 22.9 18.0 77 2.6 ESE 11 15 6 8 1019.3 1019.3 0.0
30/07:00pm 22.3 22.5 17.7 75 2.8 E 13 17 7 9 1019.1 1019.1 0.0
30/06:30pm 22.2 22.4 17.6 75 2.8 E 13 19 7 10 1018.9 1018.9 0.0
30/06:00pm 21.9 23.2 17.5 76 2.7 ESE 7 15 4 8 1018.6 1018.6 0.0
30/05:30pm 22.2 23.0 17.3 74 3.0 ESE 9 17 5 9 1018.3 1018.3 0.0
30/05:00pm 22.6 23.0 17.3 72 3.3 ESE 11 17 6 9 1018.2 1018.2 0.0
30/04:30pm 23.1 23.4 17.1 69 3.7 ESE 11 20 6 11 1017.9 1017.9 0.0
30/04:00pm 23.8 23.8 17.3 67 4.0 ESE 13 20 7 11 1017.7 1017.7 0.0
30/03:30pm 23.8 24.2 17.3 67 4.0 ESE 11 20 6 11 1017.6 1017.6 0.0
30/03:00pm 23.5 23.2 16.5 65 4.3 ESE 13 20 7 11 1017.7 1017.7 0.0
30/02:30pm 23.6 22.9 16.4 64 4.4 ESE 15 24 8 13 1017.8 1017.8 0.0
30/02:00pm 24.3 24.1 16.6 62 4.7 ESE 13 22 7 12 1018.0 1018.0 0.0
30/01:30pm 23.8 22.9 15.8 61 4.8 ESE 15 24 8 13 1018.4 1018.4 0.0
30/01:00pm 24.6 23.9 16.3 60 5.1 ESE 15 26 8 14 1018.7 1018.7 0.0
30/12:30pm 23.7 23.0 15.5 60 4.9 SE 13 20 7 11 1019.3 1019.3 0.0
30/12:00pm 23.0 21.8 15.1 61 4.7 SE 15 24 8 13 1019.7 1019.7 0.0
30/11:30am 23.1 22.0 15.2 61 4.7 SE 15 24 8 13 1020.0 1020.0 0.0
30/11:00am 23.0 21.9 15.3 62 4.6 SE 15 24 8 13 1020.5 1020.5 0.0
30/10:30am 22.6 22.2 14.2 59 4.9 SE 9 20 5 11 1020.8 1020.8 0.0
30/10:00am 20.9 20.0 13.8 64 4.1 S 11 19 6 10 1021.1 1021.1 0.0
30/09:30am 20.1 19.2 13.6 66 3.7 SSW 11 17 6 9 1021.2 1021.2 0.0
30/09:00am 18.6 17.3 12.6 68 3.3 SSW 11 19 6 10 1021.3 1021.3 0.0
30/08:30am 17.1 15.6 12.0 72 2.8 SSW 11 17 6 9 1021.0 1021.0 0.0
30/08:00am 15.6 14.4 11.6 77 2.2 SW 9 17 5 9 1020.8 1020.8 0.0
30/07:30am 14.1 12.7 10.9 81 1.7 SW 9 17 5 9 1020.6 1020.6 0.0
30/07:00am 13.5 12.2 11.2 86 1.2 SW 9 13 5 7 1020.5 1020.5 0.0
30/06:30am 13.3 11.6 11.2 87 1.1 SW 11 13 6 7 1020.2 1020.2 0.0
30/06:00am 13.3 11.6 11.2 87 1.1 SW 11 15 6 8 1020.0 1020.0 0.0
30/05:30am 13.0 12.1 11.4 90 0.8 SW 7 11 4 6 1019.8 1019.8 0.0
30/05:00am 13.7 12.4 11.2 85 1.3 SW 9 13 5 7 1019.6 1019.6 0.0
30/04:30am 14.1 12.8 11.1 82 1.6 SSW 9 13 5 7 1019.5 1019.5 0.0
30/04:00am 14.3 12.6 11.1 81 1.7 SSW 11 15 6 8 1019.7 1019.7 0.0
30/03:30am 14.3 13.0 11.1 81 1.7 SSW 9 13 5 7 1019.8 1019.8 0.0
30/03:00am 14.4 13.0 10.8 79 1.9 S 9 13 5 7 1019.9 1019.9 0.0
30/02:30am 14.6 13.2 10.8 78 2.0 S 9 15 5 8 1020.2 1020.2 0.0
30/02:00am 14.6 13.1 10.6 77 2.1 S 9 15 5 8 1020.6 1020.6 0.0
30/01:30am 14.6 13.0 10.2 75 2.3 SSW 9 13 5 7 1021.0 1021.0 0.0
30/01:00am 14.8 13.3 10.4 75 2.3 SSW 9 15 5 8 1021.5 1021.5 0.0
30/12:30am 15.0 13.6 10.8 76 2.2 SSW 9 13 5 7 1021.7 1021.7 0.0
30/12:00am 15.6 14.2 11.0 74 2.4 SSW 9 13 5 7 1021.8 1021.8 0.0
 
Date/Time
EST
Temp
°C
App
Temp
°C
Dew
Point
°C
Rel
Hum
%
Delta-T
°C
Wind Press
QNH
hPa
Press
MSL
hPa
Rain since
9am
mm
Dir  Spd
km/h
Gust
km/h
Spd
kts
Gust
kts
29/11:30pm 16.1 14.8 11.1 72 2.7 S 9 13 5 7 1021.9 1021.9 0.0
29/11:00pm 16.0 14.7 11.4 74 2.5 S 9 15 5 8 1022.1 1022.1 0.0
29/10:30pm 16.1 15.3 11.7 75 2.4 S 7 11 4 6 1022.3 1022.3 0.0
29/10:00pm 16.6 16.0 12.2 75 2.4 SSW 7 13 4 7 1022.5 1022.5 0.0
29/09:30pm 17.2 16.5 11.9 71 2.9 S 7 11 4 6 1022.6 1022.6 0.0
29/09:00pm 17.7 17.0 11.9 69 3.2 S 7 11 4 6 1022.5 1022.5 0.0
29/08:30pm 18.4 17.5 11.5 64 3.8 SSE 7 13 4 7 1022.4 1022.4 0.0
29/08:00pm 20.0 18.4 12.7 63 4.1 SE 13 24 7 13 1021.9 1021.9 0.0

Other Formats:

Comma delimited format used in spreadsheet applications
http://www.bom.gov.au/fwo/IDQ60801/IDQ60801.95296.axf

JavaScript Object Notation format (JSON) in row-major order
http://www.bom.gov.au/fwo/IDQ60801/IDQ60801.95296.json